This is the latest recevied weather packets stored in our database for station/object DM5KA-13. If no packets are shown the sender has not sent any weather packets the latest 1 day(s).
| Time | Temp. | Humidity | Pressure | Rain* | Wind** | Luminosity | Snow |
|---|---|---|---|---|---|---|---|
| 1778098806 | 12.78° C | 83% | 1007.7 hPa | 0 mm | 0.45 m/s, 0° | - | - |
| 1778098506 | 13.89° C | 83% | 1007.7 hPa | 0 mm | 0.45 m/s, 0° | - | - |
| 1778098206 | 13.89° C | 83% | 1007.7 hPa | 0 mm | 0.45 m/s, 0° | - | - |
| 1778097906 | 13.89° C | 83% | 1007.7 hPa | 0 mm | 0.45 m/s, 0° | - | - |
| 1778097618 | 13.89° C | 82% | 1007.7 hPa | 0 mm | 0 m/s | - | - |
| 1778097318 | 13.89° C | 82% | 1007.7 hPa | 0 mm | 0.45 m/s, 0° | - | - |
| 1778097018 | 13.89° C | 81% | 1007.8 hPa | 0 mm | 0.45 m/s, 0° | - | - |
| 1778096418 | 13.89° C | 81% | 1007.7 hPa | 0 mm | 0.45 m/s, 0° | - | - |
| 1778096118 | 13.89° C | 81% | 1007.7 hPa | 0 mm | 0.45 m/s, 0° | - | - |
| 1778095818 | 13.89° C | 81% | 1007.7 hPa | 0 mm | 0.89 m/s, 0° | - | - |
| 1778095518 | 13.89° C | 80% | 1007.5 hPa | 0 mm | 0.45 m/s, 0° | - | - |
| 1778095218 | 13.89° C | 80% | 1007.4 hPa | 0 mm | 0.45 m/s, 0° | - | - |
| 1778094918 | 15° C | 80% | 1007.3 hPa | 0 mm | 0.45 m/s, 0° | - | - |
| 1778092806 | 16.11° C | 77% | 1006.9 hPa | 0 mm | 0.45 m/s, 0° | - | - |
| 1778092506 | 16.11° C | 76% | 1007 hPa | 0 mm | 0.89 m/s, 0° | - | - |
| 1778092206 | 16.11° C | 76% | 1006.8 hPa | 0 mm | 0.45 m/s, 0° | - | - |
| 1778091906 | 16.11° C | 75% | 1006.7 hPa | 0 mm | 0.45 m/s, 0° | - | - |
| 1778085906 | 18.89° C | 60% | 1005.9 hPa | 0 mm | 0.89 m/s, 0° | - | - |
| 1778083819 | 20° C | 59% | 1006.1 hPa | 0 mm | 0.45 m/s, 0° | - | - |
| 1778082019 | 20° C | 58% | 1006.5 hPa | 0 mm | 0 m/s | - | - |
| 1778081119 | 18.89° C | 62% | 1006.6 hPa | 0 mm | 0 m/s | - | - |
| 1778080819 | 20° C | 61% | 1006.6 hPa | 0 mm | 0.45 m/s, 0° | - | - |
| 1778080519 | 20° C | 60% | 1006.5 hPa | 0 mm | 0.45 m/s, 0° | - | - |
| 1778080219 | 20° C | 60% | 1006.5 hPa | 0 mm | 0.45 m/s, 0° | - | - |
| 1778079619 | 20° C | 61% | 1006.5 hPa | 0 mm | 0.45 m/s, 0° | - | - |
* Rain latest hour (hover to see other rain measurements)
** Current wind speed in m/s (hover to see current wind gust speed)